createdAt,value
2018-03-21T00:00:02.026Z,0.01
2018-03-21T00:02:29.980Z,-0.04
2018-03-21T00:04:58.130Z,-0.06
2018-03-21T00:07:25.848Z,-0.10
2018-03-21T00:09:53.418Z,-0.05
2018-03-21T00:12:20.976Z,-0.11
2018-03-21T00:14:49.320Z,-0.18
2018-03-21T00:17:17.036Z,-0.25
2018-03-21T00:19:44.600Z,-0.24
2018-03-21T00:22:12.344Z,-0.33
2018-03-21T00:24:41.236Z,-0.50
2018-03-21T00:27:09.436Z,-0.41
2018-03-21T00:29:37.908Z,-0.45
2018-03-21T00:32:05.635Z,-0.56
2018-03-21T00:34:33.196Z,-0.53
2018-03-21T00:37:00.911Z,-0.57
2018-03-21T00:39:30.009Z,-0.76
2018-03-21T00:41:57.608Z,-0.40
2018-03-21T00:44:25.945Z,-0.46
2018-03-21T00:46:53.559Z,-0.43
2018-03-21T00:49:21.189Z,-0.48
2018-03-21T00:51:49.055Z,-0.49
2018-03-21T00:54:16.834Z,-0.50
2018-03-21T00:56:44.402Z,-0.40
2018-03-21T00:59:11.967Z,-0.43
2018-03-21T01:01:40.394Z,-0.47
2018-03-21T01:04:08.246Z,-0.42
2018-03-21T01:06:35.956Z,-0.46
2018-03-21T01:09:03.543Z,-0.40
2018-03-21T01:11:31.090Z,-0.48
2018-03-21T01:13:58.652Z,-0.54
2018-03-21T01:16:26.182Z,-0.64
2018-03-21T01:18:53.752Z,-0.53
2018-03-21T01:21:21.287Z,-0.51
2018-03-21T01:23:48.888Z,-0.51
2018-03-21T01:26:16.443Z,-0.66
2018-03-21T01:28:43.983Z,-0.51
2018-03-21T01:31:11.542Z,-0.49
2018-03-21T01:33:39.085Z,-0.59
2018-03-21T01:36:06.680Z,-0.64
2018-03-21T01:38:34.198Z,-0.61
2018-03-21T01:41:01.772Z,-0.58
2018-03-21T01:43:29.304Z,-0.82
2018-03-21T01:45:56.870Z,-0.69
2018-03-21T01:48:24.406Z,-0.58
2018-03-21T01:50:51.972Z,-0.64
2018-03-21T01:53:19.499Z,-0.76
2018-03-21T01:55:47.162Z,-0.65
2018-03-21T01:58:14.817Z,-0.76
2018-03-21T02:00:42.383Z,-0.99
2018-03-21T02:03:09.922Z,-0.97
2018-03-21T02:05:37.465Z,-0.85
2018-03-21T02:08:05.029Z,-0.95
2018-03-21T02:10:33.423Z,-0.83
2018-03-21T02:13:00.983Z,-0.79
2018-03-21T02:15:28.522Z,-0.93
2018-03-21T02:17:56.071Z,-0.82
2018-03-21T02:20:23.612Z,-0.80
2018-03-21T02:22:51.164Z,-0.72
2018-03-21T02:25:18.794Z,-0.71
2018-03-21T02:27:46.352Z,-0.84
2018-03-21T02:30:13.908Z,-0.81
2018-03-21T02:32:41.474Z,-0.80
2018-03-21T02:35:09.003Z,-0.79
2018-03-21T02:37:36.521Z,-0.79
2018-03-21T02:40:04.107Z,-0.76
2018-03-21T02:42:31.665Z,-0.87
2018-03-21T02:44:59.217Z,-1.17
2018-03-21T02:47:26.743Z,-1.11
2018-03-21T02:49:54.294Z,-1.28
2018-03-21T02:52:21.813Z,-1.18
2018-03-21T02:54:49.388Z,-1.03
2018-03-21T02:57:16.922Z,-1.30
2018-03-21T02:59:44.475Z,-1.27
2018-03-21T03:02:12.036Z,-1.43
2018-03-21T03:04:39.628Z,-1.63
2018-03-21T03:07:07.157Z,-1.56
2018-03-21T03:09:34.731Z,-1.42
2018-03-21T03:12:02.287Z,-1.27
2018-03-21T03:14:29.871Z,-1.47
2018-03-21T03:16:57.438Z,-1.39
2018-03-21T03:19:24.995Z,-1.39
2018-03-21T03:21:52.552Z,-1.32
2018-03-21T03:24:20.108Z,-1.45
2018-03-21T03:26:47.676Z,-1.60
2018-03-21T03:29:15.205Z,-1.59
2018-03-21T03:31:42.778Z,-1.34
2018-03-21T03:34:10.306Z,-1.42
2018-03-21T03:36:37.871Z,-1.48
2018-03-21T03:39:05.416Z,-1.52
2018-03-21T03:41:33.844Z,-1.49
2018-03-21T03:44:01.414Z,-1.55
2018-03-21T03:46:28.971Z,-1.47
2018-03-21T03:48:56.536Z,-1.76
2018-03-21T03:51:24.071Z,-1.59
2018-03-21T03:54:07.256Z,-1.58
2018-03-21T03:56:34.799Z,-1.80
2018-03-21T03:59:02.360Z,-1.95
2018-03-21T04:01:29.877Z,-2.05
2018-03-21T04:03:57.437Z,-1.84
2018-03-21T04:06:25.001Z,-2.25
2018-03-21T04:08:52.560Z,-1.95
2018-03-21T04:11:20.089Z,-2.00
2018-03-21T04:13:47.664Z,-2.04
2018-03-21T04:16:15.181Z,-2.05
2018-03-21T04:18:42.752Z,-2.27
2018-03-21T04:21:10.308Z,-2.10
2018-03-21T04:23:37.860Z,-2.01
2018-03-21T04:26:05.432Z,-1.87
2018-03-21T04:28:33.899Z,-1.81
2018-03-21T04:31:01.456Z,-1.81
2018-03-21T04:33:28.981Z,-1.85
2018-03-21T04:35:56.635Z,-1.82
2018-03-21T04:38:24.156Z,-1.89
2018-03-21T04:40:51.761Z,-1.97
2018-03-21T04:43:19.299Z,-2.27
2018-03-21T04:45:46.864Z,-2.19
2018-03-21T04:48:14.380Z,-2.33
2018-03-21T04:50:41.956Z,-2.51
2018-03-21T04:53:09.728Z,-2.49
2018-03-21T04:55:37.342Z,-2.41
2018-03-21T04:58:04.903Z,-2.20
2018-03-21T05:00:32.437Z,-2.19
2018-03-21T05:02:59.995Z,-2.39
2018-03-21T05:05:27.516Z,-2.23
2018-03-21T05:07:55.110Z,-2.59
2018-03-21T05:10:22.629Z,-2.45
2018-03-21T05:12:50.187Z,-2.40
2018-03-21T05:15:17.788Z,-2.38
2018-03-21T05:17:45.352Z,-2.36
2018-03-21T05:20:12.907Z,-2.30
2018-03-21T05:22:40.465Z,-2.44
2018-03-21T05:25:08.025Z,-2.78
2018-03-21T05:27:36.482Z,-2.39
2018-03-21T05:30:04.760Z,-2.45
2018-03-21T05:32:32.283Z,-2.57
2018-03-21T05:34:59.839Z,-2.73
2018-03-21T05:37:27.360Z,-2.54
2018-03-21T05:39:54.918Z,-2.45
2018-03-21T05:42:22.448Z,-2.50
2018-03-21T05:44:50.538Z,-2.36
2018-03-21T05:47:18.630Z,-2.40
2018-03-21T05:49:47.620Z,-2.35
2018-03-21T05:52:15.176Z,-2.32
2018-03-21T05:54:42.856Z,-2.35
2018-03-21T05:57:10.404Z,-2.19
2018-03-21T05:59:37.990Z,-2.16
2018-03-21T06:02:05.541Z,-2.10
2018-03-21T06:04:33.154Z,-2.15
2018-03-21T06:07:00.717Z,-2.15
2018-03-21T06:09:28.426Z,-2.02
2018-03-21T06:11:56.035Z,-1.99
2018-03-21T06:14:23.580Z,-1.98
2018-03-21T06:16:51.177Z,-1.91
2018-03-21T06:19:21.493Z,-1.88
2018-03-21T06:21:52.404Z,-1.93
2018-03-21T06:24:20.162Z,-2.11
2018-03-21T06:26:47.871Z,-1.87
2018-03-21T06:29:15.390Z,-2.23
2018-03-21T06:31:42.923Z,-1.86
2018-03-21T06:34:10.540Z,-2.01
2018-03-21T06:36:38.339Z,-1.72
2018-03-21T06:39:06.067Z,-1.59
2018-03-21T06:41:33.581Z,-1.45
2018-03-21T06:44:01.153Z,-1.38
2018-03-21T06:46:28.684Z,-1.35
2018-03-21T06:48:56.255Z,-1.23
2018-03-21T06:51:23.795Z,-1.13
2018-03-21T06:53:51.387Z,-1.02
2018-03-21T06:56:18.919Z,-0.87
2018-03-21T06:58:46.509Z,-0.89
2018-03-21T07:01:14.065Z,-0.71
2018-03-21T07:03:41.651Z,-0.64
2018-03-21T07:06:09.235Z,-0.65
2018-03-21T07:08:36.763Z,-0.63
2018-03-21T07:11:05.158Z,-0.45
2018-03-21T07:16:46.590Z,-0.30
2018-03-21T07:19:14.119Z,-0.27
2018-03-21T07:21:41.688Z,-0.15
2018-03-21T07:24:09.217Z,-0.10
2018-03-21T07:26:36.793Z,0.05
2018-03-21T07:29:05.127Z,0.13
2018-03-21T07:31:32.671Z,0.15
2018-03-21T07:34:00.204Z,0.27
2018-03-21T07:36:27.775Z,0.37
2018-03-21T07:38:55.304Z,0.49
2018-03-21T07:41:22.823Z,0.61
2018-03-21T07:43:50.433Z,0.68
2018-03-21T07:46:17.962Z,0.78
2018-03-21T07:48:45.550Z,0.84
2018-03-21T07:51:13.086Z,0.96
2018-03-21T07:53:40.644Z,1.03
2018-03-21T07:56:08.168Z,1.13
2018-03-21T07:58:35.718Z,1.21
2018-03-21T08:01:03.247Z,1.31
2018-03-21T08:03:30.811Z,1.31
2018-03-21T08:05:58.323Z,1.41
2018-03-21T08:08:25.885Z,1.52
2018-03-21T08:10:53.419Z,1.56
2018-03-21T08:13:20.992Z,1.70
2018-03-21T08:15:48.521Z,1.74
2018-03-21T08:18:16.038Z,1.77
2018-03-21T08:20:43.584Z,1.82
2018-03-21T08:23:11.122Z,1.88
2018-03-21T08:25:38.671Z,1.97
2018-03-21T08:28:06.210Z,2.04
2018-03-21T08:30:33.811Z,2.03
2018-03-21T08:33:01.334Z,2.04
2018-03-21T08:35:28.891Z,2.13
2018-03-21T08:37:56.408Z,2.20
2018-03-21T08:40:23.975Z,2.27
2018-03-21T08:42:51.504Z,2.36
2018-03-21T08:45:19.044Z,2.39
2018-03-21T08:47:46.585Z,2.47
2018-03-21T08:50:14.124Z,2.54
2018-03-21T08:52:41.665Z,2.56
2018-03-21T08:55:09.194Z,2.68
2018-03-21T08:57:37.004Z,2.73
2018-03-21T09:00:05.704Z,2.86
2018-03-21T09:02:41.242Z,2.85
2018-03-21T09:05:13.211Z,2.83
2018-03-21T09:07:43.775Z,3.02
2018-03-21T09:10:11.790Z,3.14
2018-03-21T09:12:43.448Z,3.13
2018-03-21T09:15:11.274Z,3.20
2018-03-21T09:17:39.256Z,3.24
2018-03-21T09:20:06.788Z,3.29
2018-03-21T09:22:34.852Z,3.29
2018-03-21T09:25:02.968Z,3.39
2018-03-21T09:27:32.326Z,3.43
2018-03-21T09:30:00.987Z,3.61
2018-03-21T09:32:29.671Z,3.66
2018-03-21T09:34:59.736Z,3.57
2018-03-21T09:37:30.825Z,3.59
2018-03-21T09:39:58.864Z,3.62
2018-03-21T09:42:26.804Z,3.75
2018-03-21T09:44:56.466Z,3.82
2018-03-21T09:47:26.286Z,3.76
2018-03-21T09:49:54.483Z,3.89
2018-03-21T09:52:25.617Z,4.01
2018-03-21T09:54:55.451Z,3.91
2018-03-21T09:57:23.711Z,3.93
2018-03-21T09:59:54.529Z,4.06
2018-03-21T10:02:23.664Z,4.22
2018-03-21T10:04:52.969Z,4.25
2018-03-21T10:07:20.576Z,4.29
2018-03-21T10:09:48.851Z,4.23
2018-03-21T10:12:18.490Z,4.21
2018-03-21T10:14:49.009Z,4.22
2018-03-21T10:17:19.344Z,4.25
2018-03-21T10:19:48.297Z,4.30
2018-03-21T10:22:17.683Z,4.33
2018-03-21T10:24:45.588Z,4.41
2018-03-21T10:27:14.009Z,4.56
2018-03-21T10:29:41.564Z,4.57
2018-03-21T10:32:09.344Z,4.47
2018-03-21T10:34:38.545Z,4.46
2018-03-21T10:37:06.651Z,4.38
2018-03-21T10:39:36.636Z,4.61
2018-03-21T10:42:04.296Z,4.59
2018-03-21T10:44:32.146Z,4.69
2018-03-21T10:47:01.580Z,4.97
2018-03-21T10:49:30.245Z,5.13
2018-03-21T10:51:57.972Z,4.91
2018-03-21T10:54:32.051Z,4.76
2018-03-21T10:57:05.298Z,4.98
2018-03-21T10:59:34.032Z,5.27
2018-03-21T11:02:09.397Z,4.99
2018-03-21T11:04:37.057Z,5.22
2018-03-21T11:09:39.145Z,5.30
2018-03-21T11:12:08.227Z,5.55
2018-03-21T11:14:36.351Z,5.52
2018-03-21T11:17:05.076Z,5.33
2018-03-21T11:19:36.152Z,5.31
2018-03-21T11:22:04.097Z,5.43
2018-03-21T11:24:31.678Z,5.46
2018-03-21T11:27:00.035Z,5.76
2018-03-21T11:29:33.758Z,5.60
2018-03-21T11:32:01.720Z,5.61
2018-03-21T11:34:29.854Z,5.65
2018-03-21T11:36:59.427Z,5.58
2018-03-21T11:39:27.412Z,5.73
2018-03-21T11:41:55.405Z,5.56
2018-03-21T11:44:23.000Z,5.65
2018-03-21T11:46:54.582Z,5.78
2018-03-21T11:49:24.348Z,5.83
2018-03-21T11:51:53.346Z,5.86
2018-03-21T11:54:21.898Z,5.90
2018-03-21T11:56:50.393Z,6.25
2018-03-21T11:59:22.169Z,6.26
2018-03-21T12:01:51.249Z,6.16
2018-03-21T12:04:20.943Z,6.13
2018-03-21T12:06:48.528Z,6.37
2018-03-21T12:09:17.701Z,6.59
2018-03-21T12:11:45.491Z,6.74
2018-03-21T12:14:15.493Z,6.75
2018-03-21T12:16:43.548Z,6.52
2018-03-21T12:19:11.742Z,6.59
2018-03-21T12:21:45.719Z,6.65
2018-03-21T12:24:15.117Z,6.80
2018-03-21T12:26:43.672Z,6.85
2018-03-21T12:29:11.343Z,6.98
2018-03-21T12:31:38.887Z,6.74
2018-03-21T12:34:10.930Z,6.77
2018-03-21T12:36:41.803Z,6.88
2018-03-21T12:39:10.674Z,6.96
2018-03-21T12:41:44.068Z,6.92
2018-03-21T12:44:17.728Z,7.23
2018-03-21T12:46:47.851Z,7.10
2018-03-21T12:49:16.899Z,7.28
2018-03-21T12:51:45.204Z,7.35
2018-03-21T12:54:13.187Z,7.23
2018-03-21T12:56:40.799Z,7.24
2018-03-21T12:59:10.882Z,7.31
2018-03-21T13:01:41.153Z,7.34
2018-03-21T13:04:09.238Z,7.29
2018-03-21T13:06:37.090Z,7.42
2018-03-21T13:09:04.812Z,7.57
2018-03-21T13:11:32.680Z,7.58
2018-03-21T13:14:00.981Z,7.83
2018-03-21T13:16:33.017Z,7.81
2018-03-21T13:19:04.905Z,7.71
2018-03-21T13:21:33.186Z,7.82
2018-03-21T13:24:00.793Z,7.64
2018-03-21T13:26:29.882Z,7.51
2018-03-21T13:28:58.758Z,7.75
2018-03-21T13:31:28.324Z,7.94
2018-03-21T13:33:57.534Z,7.67
2018-03-21T13:36:26.161Z,7.77
2018-03-21T13:38:56.711Z,7.95
2018-03-21T13:41:26.469Z,8.09
2018-03-21T13:43:55.553Z,7.87
2018-03-21T13:46:24.764Z,8.09
2018-03-21T13:48:52.288Z,8.23
2018-03-21T13:51:19.866Z,8.36
2018-03-21T13:53:47.376Z,8.23
2018-03-21T13:56:15.076Z,8.32
2018-03-21T13:58:42.648Z,8.57
2018-03-21T14:01:10.210Z,8.57
2018-03-21T14:03:37.735Z,8.18
2018-03-21T14:06:05.497Z,8.19
2018-03-21T14:08:33.508Z,8.35
2018-03-21T14:11:01.161Z,8.63
2018-03-21T14:13:28.669Z,8.67
2018-03-21T14:15:56.860Z,8.38
2018-03-21T14:18:25.753Z,8.46
2018-03-21T14:20:53.350Z,8.60
2018-03-21T14:23:20.901Z,8.85
2018-03-21T14:25:48.454Z,8.83
2018-03-21T14:28:16.003Z,9.09
2018-03-21T14:30:43.552Z,8.85
2018-03-21T14:33:11.113Z,8.85
2018-03-21T14:35:38.664Z,9.17
2018-03-21T14:38:06.232Z,9.20
2018-03-21T14:40:33.777Z,9.01
2018-03-21T14:43:01.292Z,8.87
2018-03-21T14:45:28.838Z,9.43
2018-03-21T14:47:56.364Z,9.47
2018-03-21T14:50:23.910Z,9.48
2018-03-21T14:52:51.454Z,9.47
2018-03-21T14:55:19.068Z,9.60
2018-03-21T14:57:46.599Z,9.52
2018-03-21T15:00:14.157Z,9.65
2018-03-21T15:02:41.668Z,9.75
2018-03-21T15:05:09.237Z,9.78
2018-03-21T15:07:37.105Z,9.91
2018-03-21T15:10:04.666Z,10.16
2018-03-21T15:12:32.195Z,10.42
2018-03-21T15:14:59.737Z,10.68
2018-03-21T15:17:27.271Z,10.70
2018-03-21T15:19:58.932Z,10.62
2018-03-21T15:22:28.908Z,10.95
2018-03-21T15:24:57.759Z,11.09
2018-03-21T15:27:26.020Z,11.50
2018-03-21T15:29:54.767Z,11.39
2018-03-21T15:32:23.136Z,10.58
2018-03-21T15:34:55.469Z,10.43
2018-03-21T15:37:26.322Z,10.52
2018-03-21T15:39:54.827Z,11.13
2018-03-21T15:42:23.071Z,11.73
2018-03-21T15:44:55.336Z,11.02
2018-03-21T15:47:27.959Z,11.92
2018-03-21T15:49:57.459Z,11.51
2018-03-21T15:52:25.422Z,10.67
2018-03-21T15:54:55.638Z,11.14
2018-03-21T15:57:29.049Z,11.37
2018-03-21T15:59:57.804Z,11.84
2018-03-21T16:02:25.437Z,10.93
2018-03-21T16:04:54.098Z,11.23
2018-03-21T16:07:22.528Z,11.34
2018-03-21T16:09:52.068Z,11.08
2018-03-21T16:12:20.111Z,11.34
2018-03-21T16:14:47.836Z,12.14
2018-03-21T16:17:15.422Z,12.22
2018-03-21T16:19:42.947Z,12.10
2018-03-21T16:22:10.516Z,12.19
2018-03-21T16:24:38.036Z,12.41
2018-03-21T16:27:05.615Z,11.63
2018-03-21T16:29:33.128Z,12.29
2018-03-21T16:32:00.703Z,12.32
2018-03-21T16:34:28.256Z,12.15
2018-03-21T16:36:55.776Z,10.66
2018-03-21T16:39:23.336Z,10.58
2018-03-21T16:41:50.852Z,10.41
2018-03-21T16:44:18.432Z,10.28
2018-03-21T16:46:45.952Z,10.22
2018-03-21T16:49:13.509Z,10.02
2018-03-21T16:51:41.024Z,10.06
2018-03-21T16:54:09.707Z,9.97
2018-03-21T16:56:37.196Z,9.85
2018-03-21T16:59:04.761Z,9.84
2018-03-21T17:01:32.295Z,9.59
2018-03-21T17:03:59.881Z,9.05
2018-03-21T17:06:27.397Z,9.33
2018-03-21T17:08:55.575Z,9.30
2018-03-21T17:11:24.219Z,9.33
2018-03-21T17:13:52.035Z,9.43
2018-03-21T17:16:21.931Z,9.45
2018-03-21T17:18:50.386Z,9.31
2018-03-21T17:21:18.716Z,9.27
2018-03-21T17:23:46.596Z,9.12
2018-03-21T17:26:14.171Z,8.91
2018-03-21T17:28:41.699Z,8.65
2018-03-21T17:31:10.278Z,8.50
2018-03-21T17:33:39.969Z,8.55
2018-03-21T17:36:11.251Z,8.43
2018-03-21T17:38:42.019Z,8.38
2018-03-21T17:41:10.175Z,8.36
2018-03-21T17:43:38.404Z,8.32
2018-03-21T17:46:07.442Z,8.09
2018-03-21T17:48:39.091Z,7.92
2018-03-21T17:51:09.147Z,7.97
2018-03-21T17:53:37.396Z,7.78
2018-03-21T17:56:07.238Z,7.46
2018-03-21T17:58:37.758Z,7.47
2018-03-21T18:01:06.603Z,7.40
2018-03-21T18:03:34.656Z,7.37
2018-03-21T18:06:02.248Z,7.14
2018-03-21T18:08:32.107Z,7.12
2018-03-21T18:11:01.859Z,7.08
2018-03-21T18:13:31.135Z,6.96
2018-03-21T18:16:00.394Z,6.64
2018-03-21T18:18:28.028Z,6.53
2018-03-21T18:20:58.976Z,6.41
2018-03-21T18:23:29.807Z,6.44
2018-03-21T18:25:58.320Z,6.40
2018-03-21T18:28:26.858Z,6.27
2018-03-21T18:30:54.577Z,6.20
2018-03-21T18:33:26.128Z,5.96
2018-03-21T18:35:54.225Z,5.93
2018-03-21T18:38:22.174Z,5.65
2018-03-21T18:40:50.395Z,5.70
2018-03-21T18:43:18.039Z,5.70
2018-03-21T18:45:45.560Z,5.52
2018-03-21T18:48:16.143Z,5.42
2018-03-21T18:50:46.768Z,5.44
2018-03-21T18:53:15.031Z,5.32
2018-03-21T18:55:43.130Z,5.30
2018-03-21T18:58:10.819Z,5.16
2018-03-21T19:00:38.376Z,5.05
2018-03-21T19:03:06.975Z,4.85
2018-03-21T19:05:36.078Z,4.38
2018-03-21T19:08:05.879Z,4.55
2018-03-21T19:10:33.882Z,4.58
2018-03-21T19:13:01.689Z,4.55
2018-03-21T19:15:32.312Z,4.54
2018-03-21T19:18:02.772Z,4.53
2018-03-21T19:20:31.967Z,4.54
2018-03-21T19:23:01.977Z,4.37
2018-03-21T19:25:32.940Z,4.22
2018-03-21T19:28:04.752Z,4.18
2018-03-21T19:30:34.756Z,4.06
2018-03-21T19:33:04.864Z,3.96
2018-03-21T19:35:32.641Z,3.95
2018-03-21T19:38:02.054Z,3.92
2018-03-21T19:40:29.705Z,3.75
2018-03-21T19:43:00.192Z,3.70
2018-03-21T19:45:29.540Z,3.45
2018-03-21T19:48:00.562Z,3.56
2018-03-21T19:53:05.111Z,3.18
2018-03-21T19:55:35.383Z,2.53
2018-03-21T19:58:05.859Z,3.17
2018-03-21T20:00:35.632Z,3.46
2018-03-21T20:03:08.300Z,3.42
2018-03-21T20:05:40.955Z,3.55
2018-03-21T20:08:12.536Z,3.43
2018-03-21T20:10:40.072Z,3.43
2018-03-21T20:13:07.643Z,3.13
2018-03-21T20:15:35.255Z,3.13
2018-03-21T20:18:03.317Z,3.14
2018-03-21T20:20:30.881Z,3.26
2018-03-21T20:22:58.444Z,3.13
2018-03-21T20:25:26.617Z,2.95
2018-03-21T20:27:54.185Z,3.03
2018-03-21T20:30:21.713Z,3.04
2018-03-21T20:32:49.268Z,2.93
2018-03-21T20:35:16.956Z,2.80
2018-03-21T20:37:44.513Z,2.57
2018-03-21T20:40:12.052Z,2.79
2018-03-21T20:42:39.604Z,2.72
2018-03-21T20:45:07.134Z,2.78
2018-03-21T20:47:34.693Z,2.67
2018-03-21T20:50:02.222Z,2.69
2018-03-21T20:52:29.805Z,2.67
2018-03-21T20:54:57.412Z,2.48
2018-03-21T20:57:24.989Z,2.47
2018-03-21T20:59:52.511Z,2.28
2018-03-21T21:02:20.069Z,2.41
2018-03-21T21:04:47.591Z,2.31
2018-03-21T21:07:15.152Z,2.16
2018-03-21T21:09:42.698Z,2.21
2018-03-21T21:12:10.278Z,2.19
2018-03-21T21:14:37.807Z,2.31
2018-03-21T21:17:05.336Z,2.29
2018-03-21T21:19:32.900Z,2.18
2018-03-21T21:22:00.483Z,2.06
2018-03-21T21:24:28.042Z,2.05
2018-03-21T21:26:58.762Z,2.17
2018-03-21T21:29:26.494Z,2.18
2018-03-21T21:31:54.092Z,1.97
2018-03-21T21:34:21.668Z,2.02
2018-03-21T21:36:49.228Z,1.98
2018-03-21T21:39:18.657Z,1.99
2018-03-21T21:41:46.355Z,1.93
2018-03-21T21:44:13.923Z,1.96
2018-03-21T21:46:41.577Z,1.92
2018-03-21T21:49:09.161Z,1.92
2018-03-21T21:51:36.691Z,1.90
2018-03-21T21:54:07.163Z,1.69
2018-03-21T21:56:36.757Z,1.68
2018-03-21T21:59:05.299Z,1.73
2018-03-21T22:01:33.174Z,1.67
2018-03-21T22:04:01.384Z,1.42
2018-03-21T22:06:30.778Z,1.59
2018-03-21T22:08:59.970Z,1.68
2018-03-21T22:11:29.063Z,1.36
2018-03-21T22:13:59.967Z,1.34
2018-03-21T22:16:30.729Z,1.47
2018-03-21T22:19:00.751Z,1.58
2018-03-21T22:21:28.752Z,1.33
2018-03-21T22:23:58.243Z,1.55
2018-03-21T22:26:27.013Z,1.50
2018-03-21T22:28:56.307Z,1.51
2018-03-21T22:31:26.092Z,1.33
2018-03-21T22:33:58.860Z,1.28
2018-03-21T22:36:27.910Z,1.36
2018-03-21T22:38:57.560Z,1.13
2018-03-21T22:41:25.985Z,1.20
2018-03-21T22:43:53.667Z,1.25
2018-03-21T22:46:21.215Z,1.39
2018-03-21T22:48:50.319Z,1.30
2018-03-21T22:51:19.140Z,1.31
2018-03-21T22:53:46.720Z,1.22
2018-03-21T22:56:15.449Z,1.35
2018-03-21T22:58:43.138Z,1.25
2018-03-21T23:01:13.023Z,1.24
2018-03-21T23:03:55.712Z,1.29
2018-03-21T23:06:24.701Z,1.37
2018-03-21T23:08:52.770Z,1.28
2018-03-21T23:11:24.537Z,1.36
2018-03-21T23:13:52.890Z,1.32
2018-03-21T23:16:22.707Z,1.35
2018-03-21T23:18:50.501Z,1.34
2018-03-21T23:21:18.084Z,1.36
2018-03-21T23:23:46.954Z,1.15
2018-03-21T23:26:14.919Z,1.07
2018-03-21T23:28:42.706Z,1.12
2018-03-21T23:31:11.837Z,0.95
2018-03-21T23:33:39.480Z,1.17
2018-03-21T23:36:08.430Z,1.24
2018-03-21T23:38:36.280Z,1.12
2018-03-21T23:41:03.836Z,1.03
2018-03-21T23:43:31.377Z,0.98
2018-03-21T23:46:03.583Z,1.07
2018-03-21T23:48:35.372Z,1.02
2018-03-21T23:51:06.791Z,1.04
2018-03-21T23:53:34.530Z,1.03
2018-03-21T23:56:04.978Z,1.07
2018-03-21T23:58:34.837Z,1.06
